Terminal Aerodrome Forecast
Issued by NWS Pocatello, ID

Home | Current Version | Previous Version | Text Only | Print | Product List | Glossary On
Versions: 1 2 3 4 5 6 7 8 9 10 11 12 13 14 15 16 17 18
000
FTUS45 KPIH 012300
TAFIDA
TAF
KIDA 012320Z 0200/0224 22008KT P6SM SCT060 OVC090
     FM020300 19008KT P6SM FEW070
     FM021800 22015G25KT P6SM SCT100 SCT200=

USA.gov is the U.S. government's official web portal to all federal, state and local government web resources and services.